Kezdőlap
METAR-TAF:

METAR-TAF

Repülőterek :

Brewster Field

Holdrege, Nebraska, Amerikai Egyesült Államok

földrajzi szélesség: 40-27N, földrajzi hosszúság: 099-20W, magasság: 704 m

Jelenlegi meteorológiai megfigyelések

A jelentés 25 perccel ezelõtt készült, 21:55 UTC
Észak-északnyugati szél 10 kt széllökések: 15 kt
Hőmérséklet 24°C
Páratartalom 36%
Légköri nyomás 1007 hPa
Látótávolság: 16.1 km
Derült ég

METAR: KHDE 262155Z AUTO 33010G15KT 10SM CLR 24/08 A2975 RMK AO2 LTG DSNT NW T02420082

Idő: 17:20 (22:20 UTC)


TAF: hiányzik

Meteorológiai megfigyelések és előrejelzések több, mint 4000 repülőtéren (METAR és TAF jelentéseket).

A térképen piros és sárga pontok jelzik az elérhető meteorológiai állomásokat.

Mozgassa az egeret a pont fölött, hogy megjelenjen az állomás neve.

Azután kattintson az időjárási megfigyelések és előrejelzések megtekintéséhez.

A térkép megváltoztatása: kattintson a fekete keresztel jelölt zöld gombra ráközelítéshez, a vonallal jelölt zöld gombra távolításhoz, vagy a zöld nyilakra a szomszédos térképek eléréséhez.


METAR-TAF: